createdAt,value
2016-11-20T00:00:57.640Z,0
2016-11-20T00:01:57.381Z,0
2016-11-20T00:02:57.386Z,0
2016-11-20T00:03:56.807Z,0
2016-11-20T00:04:57.759Z,0
2016-11-20T00:05:57.221Z,0
2016-11-20T00:06:57.500Z,0
2016-11-20T00:07:57.830Z,0
2016-11-20T00:08:58.094Z,0
2016-11-20T00:09:57.910Z,0
2016-11-20T00:10:57.612Z,0
2016-11-20T00:11:57.649Z,0
2016-11-20T00:12:57.673Z,0
2016-11-20T00:13:57.714Z,0
2016-11-20T00:14:58.035Z,0
2016-11-20T00:15:58.067Z,0
2016-11-20T00:16:57.472Z,0
2016-11-20T00:17:57.513Z,0
2016-11-20T00:18:57.834Z,0
2016-11-20T00:19:58.175Z,0
2016-11-20T00:20:57.596Z,0
2016-11-20T00:21:58.224Z,0
2016-11-20T00:22:58.253Z,0
2016-11-20T00:23:58.281Z,0
2016-11-20T00:24:58.007Z,0
2016-11-20T00:25:58.031Z,0
2016-11-20T00:26:58.364Z,0
2016-11-20T00:27:58.097Z,0
2016-11-20T00:28:58.120Z,0
2016-11-20T00:29:58.458Z,0
2016-11-20T00:30:58.467Z,0
2016-11-20T00:31:58.184Z,0
2016-11-20T00:32:58.248Z,0
2016-11-20T00:33:58.292Z,0
2016-11-20T00:34:58.576Z,0
2016-11-20T00:35:58.304Z,0
2016-11-20T00:36:58.338Z,0
2016-11-20T00:37:58.075Z,0
2016-11-20T00:38:58.408Z,0
2016-11-20T00:39:58.720Z,0
2016-11-20T00:40:58.437Z,0
2016-11-20T00:41:58.783Z,0
2016-11-20T00:42:58.841Z,0
2016-11-20T00:43:58.839Z,0
2016-11-20T00:44:58.853Z,0
2016-11-20T00:45:58.884Z,0
2016-11-20T00:46:58.605Z,0
2016-11-20T00:47:58.937Z,0
2016-11-20T00:48:58.055Z,0
2016-11-20T00:49:58.996Z,0
2016-11-20T00:50:59.031Z,0
2016-11-20T00:51:59.060Z,0
2016-11-20T00:52:59.073Z,0
2016-11-20T00:53:58.801Z,0
2016-11-20T00:54:59.138Z,0
2016-11-20T00:55:59.183Z,0
2016-11-20T00:56:58.592Z,0
2016-11-20T00:57:59.221Z,0
2016-11-20T00:58:59.230Z,0
2016-11-20T00:59:59.296Z,0
2016-11-20T01:00:58.987Z,0
2016-11-20T01:01:58.416Z,0
2016-11-20T01:02:59.048Z,0
2016-11-20T01:03:59.089Z,0
2016-11-20T01:04:58.489Z,0
2016-11-20T01:05:59.442Z,0
2016-11-20T01:06:59.462Z,0
2016-11-20T01:07:58.883Z,0
2016-11-20T01:08:58.905Z,0
2016-11-20T01:09:59.245Z,0
2016-11-20T01:10:59.582Z,0
2016-11-20T01:11:59.302Z,0
2016-11-20T01:12:59.331Z,0
2016-11-20T01:13:59.052Z,0
2016-11-20T01:14:59.081Z,0
2016-11-20T01:15:59.710Z,0
2016-11-20T01:16:59.770Z,0
2016-11-20T01:17:59.155Z,0
2016-11-20T01:18:59.796Z,0
2016-11-20T01:19:59.556Z,0
2016-11-20T01:20:59.565Z,0
2016-11-20T01:21:59.886Z,0
2016-11-20T01:22:59.594Z,0
2016-11-20T01:23:59.963Z,0
2016-11-20T01:24:59.344Z,0
2016-11-20T01:26:00.004Z,0
2016-11-20T01:27:00.017Z,0
2016-11-20T01:27:59.718Z,0
2016-11-20T01:29:00.067Z,0
2016-11-20T01:30:00.095Z,0
2016-11-20T01:31:00.120Z,0
2016-11-20T01:31:59.842Z,0
2016-11-20T01:32:59.558Z,0
2016-11-20T01:34:00.210Z,0
2016-11-20T01:34:59.966Z,0
2016-11-20T01:35:59.940Z,0
2016-11-20T01:36:59.678Z,0
2016-11-20T01:38:00.006Z,0
2016-11-20T01:39:00.038Z,0
2016-11-20T01:40:00.071Z,0
2016-11-20T01:41:00.388Z,0
2016-11-20T01:42:00.120Z,0
2016-11-20T01:43:00.445Z,0
2016-11-20T01:44:00.174Z,0
2016-11-20T01:44:59.879Z,0
2016-11-20T01:46:00.287Z,0
2016-11-20T01:47:00.261Z,0
2016-11-20T01:48:00.580Z,0
2016-11-20T01:49:00.309Z,0
2016-11-20T01:50:00.637Z,0
2016-11-20T01:51:00.375Z,0
2016-11-20T01:52:00.387Z,0
2016-11-20T01:53:00.100Z,0
2016-11-20T01:54:00.449Z,0
2016-11-20T01:55:00.769Z,0
2016-11-20T01:56:00.810Z,0
2016-11-20T01:57:00.523Z,0
2016-11-20T01:58:00.872Z,0
2016-11-20T01:59:00.589Z,0
2016-11-20T02:00:00.930Z,0
2016-11-20T02:01:00.630Z,0
2016-11-20T02:02:01.003Z,0
2016-11-20T02:03:00.987Z,0
2016-11-20T02:04:00.413Z,0
2016-11-20T02:05:01.061Z,0
2016-11-20T02:06:01.083Z,0
2016-11-20T02:07:01.119Z,0
2016-11-20T02:08:00.832Z,0
2016-11-20T02:09:01.152Z,0
2016-11-20T02:10:00.888Z,0
2016-11-20T02:11:01.210Z,0
2016-11-20T02:12:00.939Z,0
2016-11-20T02:13:00.967Z,0
2016-11-20T02:14:01.280Z,0
2016-11-20T02:15:00.714Z,0
2016-11-20T02:16:00.741Z,0
2016-11-20T02:17:00.763Z,0
2016-11-20T02:18:01.103Z,0
2016-11-20T02:19:01.428Z,0
2016-11-20T02:20:01.157Z,0
2016-11-20T02:21:00.866Z,0
2016-11-20T02:22:01.196Z,0
2016-11-20T02:23:01.243Z,0
2016-11-20T02:24:01.563Z,0
2016-11-20T02:25:01.598Z,0
2016-11-20T02:26:01.317Z,0
2016-11-20T02:27:01.658Z,0
2016-11-20T02:28:01.078Z,0
2016-11-20T02:29:01.095Z,0
2016-11-20T02:30:01.440Z,0
2016-11-20T02:31:01.466Z,0
2016-11-20T02:32:01.778Z,0
2016-11-20T02:33:01.810Z,0
2016-11-20T02:34:01.535Z,0
2016-11-20T02:35:01.869Z,0
2016-11-20T02:36:01.889Z,0
2016-11-20T02:37:01.929Z,0
2016-11-20T02:38:01.650Z,0
2016-11-20T02:39:01.979Z,0
2016-11-20T02:40:01.988Z,0
2016-11-20T02:41:02.025Z,0
2016-11-20T02:42:01.754Z,0
2016-11-20T02:43:01.490Z,0
2016-11-20T02:44:01.795Z,0
2016-11-20T02:45:02.143Z,0
2016-11-20T02:46:01.865Z,0
2016-11-20T02:47:01.900Z,0
2016-11-20T02:48:01.915Z,0
2016-11-20T02:49:02.250Z,0
2016-11-20T02:50:02.279Z,0
2016-11-20T02:51:01.996Z,0
2016-11-20T02:52:02.053Z,0
2016-11-20T02:53:02.357Z,0
2016-11-20T02:54:02.392Z,0
2016-11-20T02:55:02.415Z,0
2016-11-20T02:56:02.451Z,0
2016-11-20T02:57:02.456Z,0
2016-11-20T02:58:01.892Z,0
2016-11-20T02:59:02.520Z,0
2016-11-20T03:00:02.243Z,0
2016-11-20T03:01:02.259Z,0
2016-11-20T03:02:02.296Z,0
2016-11-20T03:03:02.333Z,0
2016-11-20T03:04:02.666Z,0
2016-11-20T03:05:02.378Z,0
2016-11-20T03:06:02.707Z,0
2016-11-20T03:07:02.432Z,0
2016-11-20T03:08:02.472Z,0
2016-11-20T03:09:02.495Z,0
2016-11-20T03:10:02.521Z,0
2016-11-20T03:11:02.546Z,0
2016-11-20T03:12:02.275Z,0
2016-11-20T03:13:02.603Z,0
2016-11-20T03:14:02.315Z,0
2016-11-20T03:15:02.945Z,0
2016-11-20T03:16:02.682Z,0
2016-11-20T03:17:02.411Z,0
2016-11-20T03:18:02.736Z,0
2016-11-20T03:19:03.052Z,0
2016-11-20T03:20:03.084Z,0
2016-11-20T03:21:03.118Z,0
2016-11-20T03:22:03.154Z,0
2016-11-20T03:23:02.890Z,0
2016-11-20T03:24:02.900Z,0
2016-11-20T03:25:03.229Z,0
2016-11-20T03:26:02.950Z,0
2016-11-20T03:27:02.666Z,0
2016-11-20T03:28:03.315Z,0
2016-11-20T03:29:03.048Z,0
2016-11-20T03:30:03.076Z,0
2016-11-20T03:31:02.778Z,0
2016-11-20T03:32:03.109Z,0
2016-11-20T03:33:03.135Z,0
2016-11-20T03:34:03.476Z,0
2016-11-20T03:35:03.491Z,0
2016-11-20T03:36:02.924Z,0
2016-11-20T03:37:03.261Z,0
2016-11-20T03:38:03.589Z,0
2016-11-20T03:39:03.611Z,0
2016-11-20T03:40:03.335Z,0
2016-11-20T03:41:03.367Z,0
2016-11-20T03:42:03.676Z,0
2016-11-20T03:43:03.096Z,0
2016-11-20T03:44:03.431Z,0
2016-11-20T03:45:03.467Z,0
2016-11-20T03:46:03.475Z,0
2016-11-20T03:47:03.207Z,0
2016-11-20T03:48:03.544Z,0
2016-11-20T03:49:03.869Z,0
2016-11-20T03:50:03.898Z,0
2016-11-20T03:51:03.314Z,0
2016-11-20T03:52:03.659Z,0
2016-11-20T03:53:03.995Z,0
2016-11-20T03:54:03.999Z,0
2016-11-20T03:55:04.040Z,0
2016-11-20T03:56:04.061Z,0
2016-11-20T03:57:04.086Z,0
2016-11-20T03:58:03.815Z,0
2016-11-20T03:59:03.835Z,0
2016-11-20T04:00:03.866Z,0
2016-11-20T04:01:03.893Z,0
2016-11-20T04:02:03.618Z,0
2016-11-20T04:03:03.950Z,0
2016-11-20T04:04:04.280Z,0
2016-11-20T04:05:04.019Z,0
2016-11-20T04:06:03.739Z,0
2016-11-20T04:07:03.741Z,0
2016-11-20T04:08:04.394Z,0
2016-11-20T04:09:04.414Z,0
2016-11-20T04:10:03.840Z,0
2016-11-20T04:11:03.856Z,0
2016-11-20T04:12:04.508Z,0
2016-11-20T04:13:03.937Z,0
2016-11-20T04:14:04.237Z,0
2016-11-20T04:15:03.970Z,0
2016-11-20T04:16:04.607Z,0
2016-11-20T04:17:03.706Z,0
2016-11-20T04:18:04.660Z,0
2016-11-20T04:19:04.385Z,0
2016-11-20T04:20:04.721Z,0
2016-11-20T04:21:04.731Z,0
2016-11-20T04:22:04.463Z,0
2016-11-20T04:23:04.180Z,0
2016-11-20T04:24:04.512Z,0
2016-11-20T04:25:04.852Z,0
2016-11-20T04:26:04.574Z,0
2016-11-20T04:27:04.902Z,0
2016-11-20T04:28:04.932Z,0
2016-11-20T04:29:04.947Z,0
2016-11-20T04:30:04.381Z,0
2016-11-20T04:31:05.014Z,0
2016-11-20T04:32:04.729Z,0
2016-11-20T04:33:04.442Z,0
2016-11-20T04:34:05.091Z,0
2016-11-20T04:35:04.503Z,0
2016-11-20T04:36:05.160Z,0
2016-11-20T04:37:05.157Z,0
2016-11-20T04:38:04.587Z,0
2016-11-20T04:39:04.917Z,0
2016-11-20T04:40:05.251Z,0
2016-11-20T04:41:05.268Z,0
2016-11-20T04:42:04.704Z,0
2016-11-20T04:43:05.033Z,0
2016-11-20T04:44:05.359Z,0
2016-11-20T04:45:05.074Z,0
2016-11-20T04:46:04.803Z,0
2016-11-20T04:47:04.835Z,0
2016-11-20T04:48:04.868Z,0
2016-11-20T04:49:05.176Z,0
2016-11-20T04:50:05.509Z,0
2016-11-20T04:51:05.551Z,0
2016-11-20T04:52:05.571Z,0
2016-11-20T04:53:05.291Z,0
2016-11-20T04:54:05.624Z,0
2016-11-20T04:55:05.353Z,0
2016-11-20T04:56:05.685Z,0
2016-11-20T04:57:05.390Z,0
2016-11-20T04:58:05.135Z,0
2016-11-20T04:59:05.759Z,0
2016-11-20T05:00:05.783Z,0
2016-11-20T05:01:05.813Z,0
2016-11-20T05:02:05.861Z,0
2016-11-20T05:03:05.557Z,0
2016-11-20T05:04:05.579Z,0
2016-11-20T05:05:05.911Z,0
2016-11-20T05:06:05.947Z,0
2016-11-20T05:07:05.976Z,0
2016-11-20T05:08:05.705Z,0
2016-11-20T05:09:06.030Z,0
2016-11-20T05:10:05.445Z,0
2016-11-20T05:11:05.774Z,0
2016-11-20T05:12:05.494Z,0
2016-11-20T05:13:05.831Z,0
2016-11-20T05:14:06.172Z,0
2016-11-20T05:15:05.885Z,0
2016-11-20T05:16:05.906Z,0
2016-11-20T05:17:05.942Z,0
2016-11-20T05:18:05.985Z,0
2016-11-20T05:19:05.692Z,0
2016-11-20T05:20:05.706Z,0
2016-11-20T05:21:06.053Z,0
2016-11-20T05:22:06.374Z,0
2016-11-20T05:23:06.129Z,0
2016-11-20T05:24:06.431Z,0
2016-11-20T05:25:05.848Z,0
2016-11-20T05:26:06.488Z,0
2016-11-20T05:27:05.884Z,0
2016-11-20T05:28:05.929Z,0
2016-11-20T05:29:06.570Z,0
2016-11-20T05:30:06.282Z,0
2016-11-20T05:31:06.308Z,0
2016-11-20T05:32:06.664Z,0
2016-11-20T05:33:06.669Z,0
2016-11-20T05:34:06.697Z,0
2016-11-20T05:35:06.710Z,0
2016-11-20T05:36:06.753Z,0
2016-11-20T05:37:06.778Z,0
2016-11-20T05:38:06.502Z,0
2016-11-20T05:39:06.217Z,0
2016-11-20T05:40:06.879Z,0
2016-11-20T05:41:06.590Z,0
2016-11-20T05:42:06.000Z,0
2016-11-20T05:43:06.631Z,0
2016-11-20T05:44:06.352Z,0
2016-11-20T05:45:06.713Z,0
2016-11-20T05:46:06.714Z,0
2016-11-20T05:47:06.462Z,0
2016-11-20T05:48:06.771Z,0
2016-11-20T05:49:06.491Z,0
2016-11-20T05:50:07.112Z,0
2016-11-20T05:51:06.241Z,0
2016-11-20T05:52:06.570Z,0
2016-11-20T05:53:07.215Z,0
2016-11-20T05:54:06.927Z,0
2016-11-20T05:55:07.260Z,0
2016-11-20T05:56:06.678Z,0
2016-11-20T05:57:07.313Z,0
2016-11-20T05:58:06.733Z,0
2016-11-20T05:59:07.369Z,0
2016-11-20T06:00:07.103Z,0
2016-11-20T06:01:07.420Z,0
2016-11-20T06:02:07.444Z,0
2016-11-20T06:03:07.465Z,0
2016-11-20T06:04:07.210Z,0
2016-11-20T06:05:07.223Z,0
2016-11-20T06:06:06.955Z,0
2016-11-20T06:07:07.588Z,0
2016-11-20T06:08:07.649Z,0
2016-11-20T06:09:07.634Z,0
2016-11-20T06:10:07.367Z,0
2016-11-20T06:11:07.388Z,0
2016-11-20T06:12:07.408Z,0
2016-11-20T06:13:07.749Z,0
2016-11-20T06:14:07.770Z,0
2016-11-20T06:15:07.198Z,0
2016-11-20T06:16:07.223Z,0
2016-11-20T06:17:07.844Z,0
2016-11-20T06:18:07.897Z,0
2016-11-20T06:19:07.921Z,0
2016-11-20T06:20:07.635Z,0
2016-11-20T06:21:07.988Z,0
2016-11-20T06:22:07.688Z,0
2016-11-20T06:23:08.029Z,0
2016-11-20T06:24:08.039Z,0
2016-11-20T06:25:08.067Z,0
2016-11-20T06:26:07.792Z,0
2016-11-20T06:27:08.134Z,0
2016-11-20T06:28:07.557Z,0
2016-11-20T06:29:07.909Z,0
2016-11-20T06:30:08.227Z,0
2016-11-20T06:31:08.244Z,0
2016-11-20T06:32:07.953Z,0
2016-11-20T06:33:07.993Z,0
2016-11-20T06:34:08.022Z,0
2016-11-20T06:35:08.350Z,0
2016-11-20T06:36:08.080Z,0
2016-11-20T06:37:08.397Z,4
2016-11-20T06:38:08.437Z,4
2016-11-20T06:39:08.174Z,4
2016-11-20T06:40:08.179Z,4
2016-11-20T06:41:08.212Z,4
2016-11-20T06:42:08.533Z,4
2016-11-20T06:43:08.261Z,8
2016-11-20T06:44:07.982Z,8
2016-11-20T06:45:08.627Z,4
2016-11-20T06:46:08.641Z,8
2016-11-20T06:47:08.676Z,8
2016-11-20T06:48:08.397Z,8
2016-11-20T06:49:08.122Z,12
2016-11-20T06:50:08.787Z,12
2016-11-20T06:51:08.484Z,16
2016-11-20T06:52:08.808Z,16
2016-11-20T06:53:08.225Z,20
2016-11-20T06:54:08.895Z,20
2016-11-20T06:55:08.923Z,20
2016-11-20T06:56:08.328Z,20
2016-11-20T06:57:08.648Z,28
2016-11-20T06:58:08.989Z,28
2016-11-20T06:59:09.002Z,32
2016-11-20T07:00:08.730Z,32
2016-11-20T07:01:08.447Z,40
2016-11-20T07:02:08.777Z,44
2016-11-20T07:03:08.484Z,44
2016-11-20T07:04:09.141Z,44
2016-11-20T07:05:09.179Z,52
2016-11-20T07:06:09.208Z,60
2016-11-20T07:07:09.236Z,60
2016-11-20T07:08:09.249Z,64
2016-11-20T07:09:08.664Z,64
2016-11-20T07:10:09.349Z,60
2016-11-20T07:11:09.022Z,60
2016-11-20T07:12:08.756Z,56
2016-11-20T07:13:09.082Z,56
2016-11-20T07:14:09.417Z,60
2016-11-20T07:15:09.437Z,68
2016-11-20T07:16:09.156Z,88
2016-11-20T07:17:09.195Z,120
2016-11-20T07:18:09.524Z,124
2016-11-20T07:19:09.553Z,120
2016-11-20T07:20:08.665Z,120
2016-11-20T07:21:08.691Z,120
2016-11-20T07:22:09.328Z,128
2016-11-20T07:23:09.661Z,124
2016-11-20T07:24:09.378Z,144
2016-11-20T07:25:09.717Z,148
2016-11-20T07:26:09.743Z,140
2016-11-20T07:27:09.155Z,128
2016-11-20T07:28:09.812Z,116
2016-11-20T07:29:09.529Z,112
2016-11-20T07:30:09.862Z,144
2016-11-20T07:31:09.872Z,132
2016-11-20T07:32:09.363Z,124
2016-11-20T07:33:09.631Z,160
2016-11-20T07:34:09.961Z,208
2016-11-20T07:35:09.695Z,220
2016-11-20T07:36:10.031Z,244
2016-11-20T07:37:10.039Z,256
2016-11-20T07:38:10.080Z,280
2016-11-20T07:39:09.489Z,304
2016-11-20T07:40:09.833Z,316
2016-11-20T07:41:09.862Z,324
2016-11-20T07:42:09.894Z,364
2016-11-20T07:43:10.211Z,396
2016-11-20T07:44:10.239Z,416
2016-11-20T07:45:09.668Z,480
2016-11-20T07:46:10.005Z,536
2016-11-20T07:47:10.330Z,684
2016-11-20T07:48:10.042Z,700
2016-11-20T07:49:10.071Z,764
2016-11-20T07:50:10.412Z,740
2016-11-20T07:51:10.128Z,764
2016-11-20T07:52:10.181Z,804
2016-11-20T07:53:09.882Z,888
2016-11-20T07:54:10.211Z,880
2016-11-20T07:55:10.247Z,864
2016-11-20T07:56:10.575Z,848
2016-11-20T07:57:10.308Z,836
2016-11-20T07:58:10.621Z,824
2016-11-20T07:59:10.357Z,844
2016-11-20T08:00:10.378Z,840
2016-11-20T08:01:10.707Z,816
2016-11-20T08:02:10.140Z,756
2016-11-20T08:03:10.768Z,832
2016-11-20T08:04:10.785Z,732
2016-11-20T08:05:10.514Z,816
2016-11-20T08:06:10.275Z,912
2016-11-20T08:07:10.875Z,1036
2016-11-20T08:08:10.896Z,1092
2016-11-20T08:09:10.627Z,1120
2016-11-20T08:10:10.660Z,1084
2016-11-20T08:11:10.978Z,1192
2016-11-20T08:12:11.015Z,1176
2016-11-20T08:13:10.423Z,1176
2016-11-20T08:14:11.055Z,1128
2016-11-20T08:15:11.108Z,1132
2016-11-20T08:16:11.145Z,1252
2016-11-20T08:17:10.550Z,1280
2016-11-20T08:18:10.577Z,1304
2016-11-20T08:19:11.206Z,1408
2016-11-20T08:20:10.622Z,1452
2016-11-20T08:21:10.651Z,1420
2016-11-20T08:22:10.989Z,1352
2016-11-20T08:23:11.013Z,1036
2016-11-20T08:24:11.349Z,976
2016-11-20T08:25:10.449Z,996
2016-11-20T08:26:11.402Z,1124
2016-11-20T08:27:11.431Z,1272
2016-11-20T08:28:11.177Z,1384
2016-11-20T08:29:11.162Z,1444
2016-11-20T08:30:11.517Z,1492
2016-11-20T08:31:11.538Z,1476
2016-11-20T08:32:11.570Z,1604
2016-11-20T08:33:11.587Z,1652
2016-11-20T08:34:11.627Z,1724
2016-11-20T08:35:11.344Z,1772
2016-11-20T08:36:11.681Z,1692
2016-11-20T08:37:11.709Z,1600
2016-11-20T08:38:11.442Z,1528
2016-11-20T08:39:11.462Z,1356
2016-11-20T08:40:11.486Z,1144
2016-11-20T08:41:11.812Z,1084
2016-11-20T08:42:11.841Z,1132
2016-11-20T08:43:11.573Z,1292
2016-11-20T08:44:11.910Z,1560
2016-11-20T08:45:11.653Z,1484
2016-11-20T08:46:11.644Z,1520
2016-11-20T08:47:11.685Z,1532
2016-11-20T08:48:11.701Z,1280
2016-11-20T08:49:11.418Z,1228
2016-11-20T08:50:11.778Z,1256
2016-11-20T08:51:11.780Z,1292
2016-11-20T08:52:12.124Z,1180
2016-11-20T08:53:11.544Z,1164
2016-11-20T08:54:11.877Z,1296
2016-11-20T08:55:12.206Z,1448
2016-11-20T08:56:12.241Z,1644
2016-11-20T08:57:12.255Z,1772
2016-11-20T08:58:11.993Z,1832
2016-11-20T08:59:12.012Z,1904
2016-11-20T09:00:12.046Z,1980
2016-11-20T09:01:12.359Z,2124
2016-11-20T09:02:12.402Z,2192
2016-11-20T09:03:12.432Z,1948
2016-11-20T09:04:11.852Z,1884
2016-11-20T09:05:12.175Z,1856
2016-11-20T09:06:12.206Z,1816
2016-11-20T09:07:11.935Z,1824
2016-11-20T09:08:11.962Z,1904
2016-11-20T09:09:12.281Z,2100
2016-11-20T09:10:12.625Z,2128
2016-11-20T09:11:12.345Z,2136
2016-11-20T09:12:12.699Z,2140
2016-11-20T09:13:12.411Z,2240
2016-11-20T09:14:12.140Z,2232
2016-11-20T09:15:12.764Z,2284
2016-11-20T09:16:12.481Z,2272
2016-11-20T09:17:12.522Z,2324
2016-11-20T09:18:12.562Z,2524
2016-11-20T09:19:12.871Z,2600
2016-11-20T09:20:12.596Z,2496
2016-11-20T09:21:12.952Z,2308
2016-11-20T09:22:12.353Z,2280
2016-11-20T09:23:12.982Z,2264
2016-11-20T09:24:12.706Z,2108
2016-11-20T09:25:12.431Z,2056
2016-11-20T09:26:13.064Z,2080
2016-11-20T09:27:12.784Z,1868
2016-11-20T09:28:12.815Z,1788
2016-11-20T09:29:12.535Z,1756
2016-11-20T09:30:13.187Z,1584
2016-11-20T09:31:13.200Z,1756
2016-11-20T09:32:13.244Z,2016
2016-11-20T09:33:13.249Z,2192
2016-11-20T09:34:12.978Z,2220
2016-11-20T09:35:13.331Z,2512
2016-11-20T09:36:13.339Z,2896
2016-11-20T09:37:13.060Z,2976
2016-11-20T09:38:13.413Z,2912
2016-11-20T09:39:13.429Z,2984
2016-11-20T09:40:13.453Z,3512
2016-11-20T09:41:13.470Z,3812
2016-11-20T09:42:13.507Z,3312
2016-11-20T09:43:13.545Z,3352
2016-11-20T09:44:13.569Z,3156
2016-11-20T09:45:12.986Z,3500
2016-11-20T09:46:13.647Z,3708
2016-11-20T09:47:13.647Z,3536
2016-11-20T09:48:14.051Z,2924
2016-11-20T09:49:13.101Z,2380
2016-11-20T09:50:13.744Z,1872
2016-11-20T09:51:13.453Z,1776
2016-11-20T09:52:13.185Z,1852
2016-11-20T09:53:13.810Z,1912
2016-11-20T09:54:13.861Z,1828
2016-11-20T09:55:13.569Z,1864
2016-11-20T09:56:13.901Z,1636
2016-11-20T09:57:13.934Z,1708
2016-11-20T09:58:13.659Z,1716
2016-11-20T09:59:14.023Z,1672
2016-11-20T10:00:13.724Z,1776
2016-11-20T10:01:14.044Z,1740
2016-11-20T10:02:13.156Z,1732
2016-11-20T10:03:13.494Z,1648
2016-11-20T10:04:14.124Z,1584
2016-11-20T10:05:13.843Z,1204
2016-11-20T10:06:13.892Z,1060
2016-11-20T10:07:14.205Z,1216
2016-11-20T10:08:13.938Z,1752
2016-11-20T10:09:13.963Z,1776
2016-11-20T10:10:14.007Z,1624
2016-11-20T10:11:14.323Z,1300
2016-11-20T10:12:14.345Z,964
2016-11-20T10:13:14.065Z,976
2016-11-20T10:14:14.419Z,1064
2016-11-20T10:15:14.119Z,1340
2016-11-20T10:16:14.168Z,1428
2016-11-20T10:17:14.488Z,1600
2016-11-20T10:18:14.534Z,1428
2016-11-20T10:19:13.929Z,1592
2016-11-20T10:20:14.295Z,1408
2016-11-20T10:21:14.306Z,1708
2016-11-20T10:22:14.337Z,1708
2016-11-20T10:23:14.648Z,2028
2016-11-20T10:24:14.389Z,1676
2016-11-20T10:25:13.798Z,1468
2016-11-20T10:26:14.746Z,1460
2016-11-20T10:27:14.459Z,1052
2016-11-20T10:28:14.493Z,1084
2016-11-20T10:29:14.517Z,1104
2016-11-20T10:30:14.541Z,1168
2016-11-20T10:31:14.303Z,1088
2016-11-20T10:32:14.903Z,1380
2016-11-20T10:33:14.928Z,1316
2016-11-20T10:34:14.976Z,1200
2016-11-20T10:35:14.985Z,1108
2016-11-20T10:36:14.106Z,904
2016-11-20T10:37:14.766Z,916
2016-11-20T10:38:15.079Z,1020
2016-11-20T10:39:14.479Z,1164
2016-11-20T10:40:14.829Z,1036
2016-11-20T10:41:14.545Z,1096
2016-11-20T10:42:14.894Z,1076
2016-11-20T10:43:15.207Z,940
2016-11-20T10:44:15.239Z,972
2016-11-20T10:45:15.276Z,800
2016-11-20T10:46:15.313Z,920
2016-11-20T10:47:15.018Z,1096
2016-11-20T10:48:15.080Z,1116
2016-11-20T10:49:15.431Z,1064
2016-11-20T10:50:15.403Z,1280
2016-11-20T10:51:15.138Z,1248
2016-11-20T10:52:15.168Z,1180
2016-11-20T10:53:15.194Z,1200
2016-11-20T10:54:15.528Z,1340
2016-11-20T10:55:15.251Z,1368
2016-11-20T10:56:15.272Z,1264
2016-11-20T10:57:15.338Z,1840
2016-11-20T10:58:15.041Z,1832
2016-11-20T10:59:15.354Z,1764
2016-11-20T11:00:15.397Z,1740
2016-11-20T11:01:15.403Z,1792
2016-11-20T11:02:15.459Z,1876
2016-11-20T11:03:15.159Z,1864
2016-11-20T11:04:15.210Z,1868
2016-11-20T11:05:15.834Z,2024
2016-11-20T11:06:15.555Z,2020
2016-11-20T11:07:15.877Z,1904
2016-11-20T11:08:15.620Z,1840
2016-11-20T11:09:15.637Z,1488
2016-11-20T11:10:15.366Z,1284
2016-11-20T11:11:15.999Z,1296
2016-11-20T11:12:16.029Z,1260
2016-11-20T11:13:15.760Z,1404
2016-11-20T11:14:16.077Z,1224
2016-11-20T11:15:15.830Z,1236
2016-11-20T11:16:15.531Z,1104
2016-11-20T11:17:16.172Z,1128
2016-11-20T11:18:16.209Z,896
2016-11-20T11:19:15.314Z,852
2016-11-20T11:20:15.958Z,900
2016-11-20T11:21:15.982Z,948
2016-11-20T11:22:16.316Z,948
2016-11-20T11:23:15.727Z,984
2016-11-20T11:24:16.369Z,1016
2016-11-20T11:25:16.077Z,968
2016-11-20T11:26:16.413Z,860
2016-11-20T11:27:16.436Z,852
2016-11-20T11:28:16.155Z,980
2016-11-20T11:29:16.192Z,1088
2016-11-20T11:30:16.533Z,1032
2016-11-20T11:31:16.554Z,1024
2016-11-20T11:32:16.587Z,992
2016-11-20T11:33:15.700Z,1092
2016-11-20T11:34:16.033Z,1132
2016-11-20T11:35:16.362Z,1248
2016-11-20T11:36:16.386Z,1348
2016-11-20T11:37:16.427Z,1624
2016-11-20T11:38:16.149Z,2064
2016-11-20T11:39:16.481Z,1896
2016-11-20T11:40:16.510Z,2232
2016-11-20T11:41:16.522Z,2480
2016-11-20T11:42:16.871Z,2468
2016-11-20T11:43:16.599Z,2668
2016-11-20T11:44:16.624Z,2224
2016-11-20T11:45:16.338Z,1960
2016-11-20T11:46:16.378Z,2220
2016-11-20T11:47:16.995Z,2352
2016-11-20T11:48:16.436Z,1892
2016-11-20T11:49:17.057Z,2008
2016-11-20T11:50:17.089Z,2008
2016-11-20T11:51:17.127Z,2520
2016-11-20T11:52:16.531Z,3036
2016-11-20T11:53:16.873Z,3252
2016-11-20T11:54:16.905Z,3156
2016-11-20T11:55:16.619Z,2608
2016-11-20T11:56:16.955Z,2080
2016-11-20T11:57:17.303Z,1908
2016-11-20T11:58:17.306Z,1444
2016-11-20T11:59:16.745Z,1344
2016-11-20T12:00:17.387Z,1340
2016-11-20T12:01:17.403Z,1396
2016-11-20T12:02:17.432Z,1104
2016-11-20T12:03:17.451Z,1144
2016-11-20T12:04:17.186Z,1136
2016-11-20T12:05:17.202Z,1192
2016-11-20T12:06:17.239Z,1276
2016-11-20T12:07:17.570Z,1252
2016-11-20T12:08:17.288Z,1380
2016-11-20T12:09:17.321Z,1476
2016-11-20T12:10:17.062Z,1420
2016-11-20T12:11:17.695Z,1400
2016-11-20T12:12:17.700Z,1588
2016-11-20T12:13:17.504Z,1812
2016-11-20T12:14:17.206Z,1944
2016-11-20T12:15:17.806Z,2220
2016-11-20T12:16:17.552Z,3032
2016-11-20T12:17:17.532Z,2956
2016-11-20T12:18:17.888Z,2592
2016-11-20T12:19:17.898Z,2436
2016-11-20T12:20:17.955Z,2268
2016-11-20T12:21:17.952Z,1880
2016-11-20T12:22:17.384Z,1780
2016-11-20T12:23:17.701Z,1624
2016-11-20T12:24:18.075Z,1728
2016-11-20T12:25:18.062Z,1572
2016-11-20T12:26:18.095Z,1548
2016-11-20T12:27:17.546Z,1992
2016-11-20T12:28:17.925Z,1764
2016-11-20T12:29:17.871Z,1780
2016-11-20T12:30:17.615Z,1444
2016-11-20T12:31:17.627Z,1308
2016-11-20T12:32:17.974Z,1264
2016-11-20T12:33:18.284Z,1468
2016-11-20T12:34:18.320Z,1476
2016-11-20T12:35:18.342Z,1656
2016-11-20T12:36:18.375Z,1440
2016-11-20T12:37:18.407Z,1244
2016-11-20T12:38:18.132Z,1320
2016-11-20T12:39:17.861Z,1264
2016-11-20T12:40:17.895Z,1052
2016-11-20T12:41:18.238Z,840
2016-11-20T12:42:18.572Z,744
2016-11-20T12:43:18.292Z,732
2016-11-20T12:44:18.297Z,756
2016-11-20T12:45:18.361Z,668
2016-11-20T12:46:18.350Z,684
2016-11-20T12:47:18.379Z,612
2016-11-20T12:48:18.724Z,560
2016-11-20T12:49:18.134Z,624
2016-11-20T12:50:18.477Z,576
2016-11-20T12:51:18.190Z,548
2016-11-20T12:52:18.834Z,544
2016-11-20T12:53:18.567Z,560
2016-11-20T12:54:18.572Z,656
2016-11-20T12:55:18.925Z,732
2016-11-20T12:56:18.338Z,784
2016-11-20T12:57:18.650Z,836
2016-11-20T12:58:18.979Z,884
2016-11-20T12:59:18.715Z,924
2016-11-20T13:00:18.748Z,960
2016-11-20T13:01:19.080Z,880
2016-11-20T13:02:18.788Z,848
2016-11-20T13:03:18.529Z,804
2016-11-20T13:04:18.865Z,728
2016-11-20T13:05:18.878Z,724
2016-11-20T13:06:18.926Z,1036
2016-11-20T13:07:19.247Z,1352
2016-11-20T13:08:19.287Z,1552
2016-11-20T13:09:19.293Z,1692
2016-11-20T13:10:19.349Z,1828
2016-11-20T13:11:19.045Z,1924
2016-11-20T13:12:18.470Z,2000
2016-11-20T13:13:19.407Z,2148
2016-11-20T13:14:18.836Z,2008
2016-11-20T13:15:19.156Z,1792
2016-11-20T13:16:19.209Z,1700
2016-11-20T13:17:18.905Z,1516
2016-11-20T13:18:19.254Z,1368
2016-11-20T13:19:19.582Z,1288
2016-11-20T13:20:19.619Z,1192
2016-11-20T13:21:19.040Z,1280
2016-11-20T13:22:19.664Z,1344
2016-11-20T13:23:19.697Z,1392
2016-11-20T13:24:19.122Z,1692
2016-11-20T13:25:19.434Z,2128
2016-11-20T13:26:19.475Z,2372
2016-11-20T13:27:19.831Z,2240
2016-11-20T13:28:19.527Z,2024
2016-11-20T13:29:19.549Z,1576
2016-11-20T13:30:19.602Z,1128
2016-11-20T13:31:19.307Z,904
2016-11-20T13:32:19.634Z,1044
2016-11-20T13:33:19.670Z,1364
2016-11-20T13:34:19.987Z,1512
2016-11-20T13:35:19.744Z,1568
2016-11-20T13:36:19.738Z,1732
2016-11-20T13:37:19.761Z,1696
2016-11-20T13:38:19.802Z,1616
2016-11-20T13:39:19.830Z,1372
2016-11-20T13:40:20.163Z,1248
2016-11-20T13:41:19.884Z,1460
2016-11-20T13:42:20.224Z,1484
2016-11-20T13:43:19.329Z,1492
2016-11-20T13:44:20.277Z,1336
2016-11-20T13:45:20.306Z,1168
2016-11-20T13:46:20.043Z,1056
2016-11-20T13:47:20.060Z,1012
2016-11-20T13:48:20.388Z,892
2016-11-20T13:49:20.420Z,712
2016-11-20T13:50:19.835Z,724
2016-11-20T13:51:19.857Z,808
2016-11-20T13:52:20.551Z,704
2016-11-20T13:53:19.939Z,676
2016-11-20T13:54:20.260Z,668
2016-11-20T13:55:20.265Z,684
2016-11-20T13:56:20.319Z,728
2016-11-20T13:57:20.354Z,768
2016-11-20T13:58:20.074Z,888
2016-11-20T13:59:20.691Z,900
2016-11-20T14:00:20.123Z,888
2016-11-20T14:01:20.752Z,940
2016-11-20T14:02:20.481Z,956
2016-11-20T14:03:20.523Z,944
2016-11-20T14:04:20.835Z,888
2016-11-20T14:05:20.867Z,888
2016-11-20T14:06:20.883Z,928